Time;durP1;ratioP1;P1;durP2;ratioP2;P2;SDS_P1;SDS_P2;PMS_P1;PMS_P2;Temp;Humidity;BMP_temperature;BMP_pressure;BME280_temperature;BME280_humidity;BME280_pressure;Samples;Min_cycle;Max_cycle;Signal;HPM_P1;HPM_P2
2023/03/10 00:07:33;;;;;;;1.23;0.98;;;;;;;21.23;33.92;102048.53;21070712;28;20069;-67
2023/03/10 00:17:35;;;;;;;2.45;1.10;;;;;;;21.04;33.71;102021.00;21073921;28;20047;-66
2023/03/10 00:27:37;;;;;;;7.40;1.23;;;;;;;21.28;33.45;102066.16;21075946;28;20032;-66
2023/03/10 00:37:44;;;;;;;6.72;1.13;;;;;;;21.21;33.61;102057.16;21057732;28;20045;-65
2023/03/10 00:47:45;;;;;;;2.20;1.20;;;;;;;21.20;33.48;102091.63;21016024;28;20082;-66
2023/03/10 00:57:47;;;;;;;5.07;1.65;;;;;;;21.23;33.89;102095.88;21073550;28;20052;-64
2023/03/10 01:07:48;;;;;;;5.40;1.50;;;;;;;21.21;33.74;102112.84;21061071;28;20082;-64
2023/03/10 01:17:49;;;;;;;1.98;1.10;;;;;;;21.10;33.57;102113.75;21073840;28;20113;-64
2023/03/10 01:27:51;;;;;;;4.75;1.45;;;;;;;21.13;33.79;102129.97;21074133;28;20463;-65
2023/03/10 01:37:52;;;;;;;2.35;1.30;;;;;;;20.99;33.85;102120.25;21073980;28;20040;-65
2023/03/10 01:47:53;;;;;;;11.90;2.30;;;;;;;21.02;33.67;102144.78;21088956;28;20078;-65
2023/03/10 01:57:55;;;;;;;4.13;1.40;;;;;;;20.98;33.72;102140.81;21088506;28;20036;-65
2023/03/10 02:07:59;;;;;;;7.80;1.30;;;;;;;20.93;33.54;102130.44;21081344;28;20541;-64
2023/03/10 02:18:04;;;;;;;3.17;1.40;;;;;;;20.88;33.81;102149.84;21081588;28;20449;-65
2023/03/10 02:28:06;;;;;;;5.75;1.20;;;;;;;20.77;33.96;102115.44;21085288;28;20040;-64
2023/03/10 02:38:07;;;;;;;5.38;1.13;;;;;;;20.93;33.25;102129.59;21083953;28;20047;-65
2023/03/10 02:48:13;;;;;;;4.00;1.00;;;;;;;21.01;33.13;102109.72;21084223;28;20032;-65
2023/03/10 02:58:21;;;;;;;4.72;1.10;;;;;;;20.95;32.96;102085.69;21079758;28;20036;-65
2023/03/10 03:08:25;;;;;;;3.07;1.20;;;;;;;21.15;33.02;102108.25;21077829;28;20052;-64
2023/03/10 03:18:30;;;;;;;3.33;1.30;;;;;;;21.21;32.76;102104.47;21061376;28;20082;-65
2023/03/10 03:28:31;;;;;;;6.18;1.30;;;;;;;21.19;32.99;102103.88;21070033;28;20044;-65
2023/03/10 03:38:33;;;;;;;5.95;1.88;;;;;;;21.25;33.17;102100.06;21048085;28;20441;-67
2023/03/10 03:48:35;;;;;;;3.15;1.20;;;;;;;21.27;33.14;102102.63;21042052;28;20380;-65
2023/03/10 03:58:36;;;;;;;11.65;1.75;;;;;;;21.29;33.30;102094.84;21078194;28;20040;-65
2023/03/10 04:08:38;;;;;;;12.57;1.95;;;;;;;21.28;33.12;102082.84;21077939;28;20058;-64
2023/03/10 04:18:39;;;;;;;17.40;2.00;;;;;;;21.27;33.58;102080.34;21076549;28;20048;-65
2023/03/10 04:28:40;;;;;;;12.73;2.08;;;;;;;21.31;34.12;102106.59;21068589;28;20074;-64
2023/03/10 04:38:42;;;;;;;22.85;3.30;;;;;;;21.33;34.48;102111.91;21064217;28;20020;-64
2023/03/10 04:48:49;;;;;;;17.08;2.78;;;;;;;21.28;34.69;102087.59;21042698;28;20041;-66
2023/03/10 04:58:50;;;;;;;14.57;2.00;;;;;;;21.26;34.18;102082.28;21027606;28;20459;-65
2023/03/10 05:08:52;;;;;;;9.73;1.98;;;;;;;21.36;34.27;102094.69;21074973;28;20043;-67
2023/03/10 05:18:53;;;;;;;5.70;1.85;;;;;;;21.35;34.39;102109.69;21086959;28;20824;-68
2023/03/10 05:28:56;;;;;;;9.68;1.45;;;;;;;21.36;34.39;102111.41;21091338;28;20399;-64
2023/03/10 05:38:57;;;;;;;10.60;2.13;;;;;;;21.35;35.12;102120.84;21085979;28;20113;-65
2023/03/10 05:48:58;;;;;;;6.60;2.13;;;;;;;21.42;35.07;102113.16;21074289;28;20044;-65
2023/03/10 05:59:00;;;;;;;4.68;1.63;;;;;;;21.51;35.02;102103.25;21087573;28;20044;-66
2023/03/10 06:09:02;;;;;;;10.07;1.70;;;;;;;21.14;34.89;102020.31;21060068;28;20040;-67
2023/03/10 06:19:03;;;;;;;3.30;1.33;;;;;;;21.59;34.33;102074.97;21087984;28;20036;-66
2023/03/10 06:29:05;;;;;;;4.38;1.33;;;;;;;21.54;36.91;102052.63;21087770;28;20044;-66
2023/03/10 06:39:08;;;;;;;4.75;1.92;;;;;;;21.48;35.73;102043.34;21085323;28;20044;-67
2023/03/10 06:49:10;;;;;;;5.05;1.30;;;;;;;21.44;35.53;102052.47;21087681;28;20040;-66
2023/03/10 06:59:11;;;;;;;4.18;0.98;;;;;;;21.34;35.19;102013.34;21086219;28;20052;-66
2023/03/10 07:09:12;;;;;;;2.25;1.20;;;;;;;21.37;35.19;102008.13;21082977;28;20101;-66
2023/03/10 07:19:14;;;;;;;6.95;1.08;;;;;;;21.31;35.26;101996.09;21078764;28;20047;-66
2023/03/10 07:29:15;;;;;;;3.03;1.55;;;;;;;21.26;35.35;101995.97;21079505;28;20116;-67
2023/03/10 07:39:20;;;;;;;2.65;1.10;;;;;;;21.21;35.11;101968.09;21078121;28;20109;-67
2023/03/10 07:49:21;;;;;;;1.33;1.17;;;;;;;21.12;35.38;101954.84;21077120;28;20077;-67
2023/03/10 07:59:22;;;;;;;2.13;0.95;;;;;;;21.14;35.24;101961.00;21079006;28;20467;-66
2023/03/10 08:09:24;;;;;;;1.60;0.90;;;;;;;21.11;35.50;101959.56;21074437;28;20044;-66
2023/03/10 08:19:26;;;;;;;3.72;1.10;;;;;;;20.95;35.33;101910.41;21077594;28;20352;-67
2023/03/10 08:29:28;;;;;;;4.00;1.17;;;;;;;21.03;35.05;101927.50;21075733;28;20055;-66
2023/03/10 08:39:32;;;;;;;3.75;1.25;;;;;;;20.96;35.20;101901.78;21076173;28;20060;-68
2023/03/10 08:49:33;;;;;;;1.40;0.75;;;;;;;20.91;35.27;101884.19;21079894;28;20036;-67
2023/03/10 08:59:37;;;;;;;2.08;1.17;;;;;;;20.93;34.62;101896.72;21090119;28;20046;-67
2023/03/10 09:09:42;;;;;;;1.85;0.90;;;;;;;20.77;34.86;101886.50;21090654;28;20040;-67
2023/03/10 09:19:43;;;;;;;1.42;1.00;;;;;;;20.87;34.60;101899.72;21089688;28;20051;-67
2023/03/10 09:29:47;;;;;;;1.45;0.85;;;;;;;20.83;34.27;101909.66;21089015;28;20044;-66
2023/03/10 09:39:49;;;;;;;1.88;0.85;;;;;;;20.77;34.20;101917.09;21088333;28;20040;-66
2023/03/10 09:49:56;;;;;;;0.95;0.75;;;;;;;20.78;34.25;101932.69;21087886;28;20548;-66
2023/03/10 10:00:04;;;;;;;1.33;0.90;;;;;;;20.73;34.10;101911.19;21083260;28;20047;-67
2023/03/10 10:10:08;;;;;;;1.73;1.00;;;;;;;20.57;33.69;101895.38;21083236;28;20548;-66
2023/03/10 10:20:41;;;;;;;1.00;0.75;;;;;;;20.59;34.16;101889.56;21086682;28;20043;-67
2023/03/10 10:30:46;;;;;;;1.48;0.85;;;;;;;20.64;33.78;101859.06;21071567;28;20040;-68
2023/03/10 10:40:50;;;;;;;2.05;0.90;;;;;;;20.61;33.72;101865.97;21084809;28;20380;-67
2023/03/10 10:50:53;;;;;;;0.93;0.82;;;;;;;20.58;34.17;101871.22;21084255;28;20085;-66
2023/03/10 11:01:10;;;;;;;1.05;0.77;;;;;;;20.55;33.79;101844.75;21079938;28;20105;-67
2023/03/10 11:11:37;;;;;;;0.80;0.70;;;;;;;20.51;33.94;101829.69;21077104;28;20055;-66
2023/03/10 11:21:45;;;;;;;1.63;0.80;;;;;;;20.49;33.57;101829.09;21081218;28;20449;-68
2023/03/10 11:31:49;;;;;;;1.10;0.80;;;;;;;20.47;33.67;101823.78;21077983;28;20044;-67
2023/03/10 11:42:00;;;;;;;1.00;0.90;;;;;;;20.43;33.62;101818.97;21073428;28;20471;-67
2023/03/10 11:52:15;;;;;;;1.35;0.77;;;;;;;20.43;33.80;101818.97;21077917;28;20483;-67
2023/03/10 12:02:25;;;;;;;2.03;1.08;;;;;;;20.37;33.69;101820.00;21077774;28;20484;-66
2023/03/10 12:12:42;;;;;;;1.92;0.90;;;;;;;20.32;33.50;101812.41;21073814;28;20028;-66
2023/03/10 12:22:55;;;;;;;0.95;0.55;;;;;;;20.27;33.23;101790.94;21076221;28;20039;-66
2023/03/10 12:32:56;;;;;;;1.55;0.90;;;;;;;20.30;33.78;101806.28;21075898;28;20052;-67
2023/03/10 12:43:20;;;;;;;1.08;0.73;;;;;;;20.24;33.52;101774.78;21074123;28;20056;-67
2023/03/10 12:53:32;;;;;;;1.10;1.00;;;;;;;20.24;33.67;101760.88;21065725;28;20044;-65
2023/03/10 13:03:45;;;;;;;1.05;0.75;;;;;;;20.26;33.28;101743.97;21074978;28;20036;-66
2023/03/10 13:13:50;;;;;;;1.30;0.82;;;;;;;20.24;33.47;101730.31;21070167;28;20491;-66
2023/03/10 13:23:52;;;;;;;1.90;1.13;;;;;;;19.80;33.48;101654.44;21074471;28;20368;-66
2023/03/10 13:33:58;;;;;;;1.48;0.75;;;;;;;20.19;33.26;101727.47;21069504;28;20036;-66
2023/03/10 13:44:03;;;;;;;1.92;0.85;;;;;;;20.18;33.24;101711.06;21072398;28;20109;-66
2023/03/10 13:54:17;;;;;;;2.72;1.02;;;;;;;20.14;33.23;101719.06;21080984;28;20064;-66
2023/03/10 14:04:39;;;;;;;1.13;0.90;;;;;;;20.11;33.34;101716.78;21084978;28;20047;-66
2023/03/10 14:14:43;;;;;;;1.33;1.02;;;;;;;20.16;32.79;101697.44;21080946;28;20044;-66
2023/03/10 14:24:45;;;;;;;1.80;1.38;;;;;;;20.16;32.99;101703.00;21084883;28;20032;-66
2023/03/10 14:34:47;;;;;;;1.83;1.20;;;;;;;20.17;32.55;101668.53;21078930;28;20052;-66
2023/03/10 14:44:49;;;;;;;1.48;1.00;;;;;;;20.16;33.82;101664.09;21083129;28;20129;-67
2023/03/10 14:54:50;;;;;;;4.32;1.30;;;;;;;20.19;33.08;101646.88;21064942;28;20113;-67
2023/03/10 15:04:51;;;;;;;8.40;1.60;;;;;;;20.16;33.85;101614.06;21082203;28;20097;-68
2023/03/10 15:14:53;;;;;;;2.95;1.13;;;;;;;20.13;34.26;101609.03;21058426;28;20040;-68
2023/03/10 15:24:55;;;;;;;3.03;1.38;;;;;;;20.22;33.80;101601.91;21073792;28;20045;-69
2023/03/10 15:34:56;;;;;;;2.67;1.33;;;;;;;20.33;33.67;101586.16;21073389;28;20449;-68
2023/03/10 15:44:58;;;;;;;4.50;1.33;;;;;;;20.44;33.73;101553.78;21071523;28;20036;-67
2023/03/10 15:54:59;;;;;;;4.28;1.70;;;;;;;20.58;33.32;101532.81;21019104;28;20048;-68
2023/03/10 16:05:00;;;;;;;2.30;1.60;;;;;;;20.65;33.21;101533.41;20993312;28;20036;-68
2023/03/10 16:15:03;;;;;;;2.75;1.45;;;;;;;20.73;33.34;101518.19;20994030;28;20101;-68
2023/03/10 16:25:05;;;;;;;7.90;1.70;;;;;;;20.79;33.20;101495.69;20994371;28;20048;-68
2023/03/10 16:35:07;;;;;;;5.72;1.40;;;;;;;20.83;32.80;101470.16;20993395;28;20086;-68
2023/03/10 16:45:13;;;;;;;1.98;1.40;;;;;;;20.86;33.08;101444.59;21033055;28;20487;-69
2023/03/10 16:55:17;;;;;;;6.32;1.50;;;;;;;20.89;32.74;101411.50;21006484;28;20548;-69
2023/03/10 17:05:18;;;;;;;3.55;1.73;;;;;;;20.84;32.76;101363.34;21077728;28;20048;-68
2023/03/10 17:15:20;;;;;;;3.13;1.73;;;;;;;20.90;32.66;101329.72;21080957;28;20055;-66
2023/03/10 17:25:21;;;;;;;3.80;1.70;;;;;;;20.89;32.38;101299.38;21012748;28;20565;-69
2023/03/10 17:35:22;;;;;;;75.07;9.32;;;;;;;20.90;32.96;101245.44;21008362;28;20048;-67
2023/03/10 17:45:26;;;;;;;50.45;5.55;;;;;;;20.95;32.97;101204.56;21070607;28;20045;-67
2023/03/10 17:55:28;;;;;;;35.97;5.57;;;;;;;20.98;33.11;101186.47;21070148;28;20052;-68
2023/03/10 18:05:29;;;;;;;51.72;6.35;;;;;;;20.97;33.68;101157.81;21087689;28;20491;-64
2023/03/10 18:15:31;;;;;;;43.72;6.20;;;;;;;21.06;33.82;101133.06;21080259;28;20066;-67
2023/03/10 18:25:32;;;;;;;82.10;8.82;;;;;;;21.15;35.00;101109.13;21081352;28;20097;-66
2023/03/10 18:35:39;;;;;;;64.97;7.88;;;;;;;21.11;35.31;101077.41;21065121;28;20044;-69
2023/03/10 18:45:44;;;;;;;61.85;9.02;;;;;;;21.22;35.50;101076.28;21063473;28;20402;-65
2023/03/10 18:55:45;;;;;;;45.80;7.18;;;;;;;21.22;35.18;101042.91;21073256;28;20560;-66
2023/03/10 19:05:56;;;;;;;107.93;11.93;;;;;;;21.15;35.48;101017.28;21074920;28;20113;-68
2023/03/10 19:15:57;;;;;;;182.73;19.52;;;;;;;21.13;35.54;101005.63;21063377;28;20047;-64
2023/03/10 19:25:59;;;;;;;125.78;13.50;;;;;;;21.18;35.91;100969.44;21079319;28;20067;-69
2023/03/10 19:36:06;;;;;;;72.28;9.85;;;;;;;21.34;36.25;100938.78;21067056;28;20567;-65
2023/03/10 19:46:10;;;;;;;59.20;8.27;;;;;;;21.42;35.36;100946.56;21066192;28;20040;-63
2023/03/10 19:56:16;;;;;;;120.95;13.18;;;;;;;21.28;35.54;100929.59;21056850;28;20073;-65
2023/03/10 20:06:20;;;;;;;62.45;8.75;;;;;;;21.37;36.02;100914.03;21076722;28;20047;-63
2023/03/10 20:16:22;;;;;;;83.78;10.73;;;;;;;21.38;36.49;100901.75;21071639;28;20445;-65
2023/03/10 20:26:24;;;;;;;88.03;9.07;;;;;;;21.40;36.43;100848.59;21067217;28;20036;-64
2023/03/10 20:36:25;;;;;;;55.13;8.20;;;;;;;21.42;35.84;100812.94;21064972;28;20044;-64
2023/03/10 20:46:27;;;;;;;40.13;6.35;;;;;;;21.42;35.62;100802.63;21068240;28;20040;-64
2023/03/10 20:56:29;;;;;;;50.95;6.82;;;;;;;21.36;36.01;100789.06;21089737;28;20040;-64
2023/03/10 21:06:31;;;;;;;32.17;5.57;;;;;;;21.25;35.63;100752.88;21082348;28;20096;-64
2023/03/10 21:16:37;;;;;;;22.70;4.72;;;;;;;21.29;35.29;100730.88;21090380;28;20560;-63
2023/03/10 21:26:38;;;;;;;22.45;4.45;;;;;;;21.37;35.15;100687.72;21059443;28;20059;-63
2023/03/10 21:36:40;;;;;;;22.67;4.63;;;;;;;21.38;35.36;100656.81;21083213;28;20036;-64
2023/03/10 21:46:45;;;;;;;12.50;3.00;;;;;;;21.41;35.47;100616.44;21075237;28;20040;-64
2023/03/10 21:56:49;;;;;;;15.48;4.15;;;;;;;21.43;34.96;100605.81;21076627;28;20036;-63
2023/03/10 22:06:50;;;;;;;13.18;3.47;;;;;;;21.46;35.36;100588.53;21078320;28;20376;-63
2023/03/10 22:16:52;;;;;;;38.42;4.75;;;;;;;21.48;35.17;100600.22;21083498;28;20048;-63
2023/03/10 22:26:53;;;;;;;13.10;3.05;;;;;;;21.00;35.15;100500.72;21083893;28;20105;-63
2023/03/10 22:36:54;;;;;;;14.50;2.80;;;;;;;21.40;34.99;100553.53;21081978;28;20046;-63
2023/03/10 22:46:56;;;;;;;8.05;2.72;;;;;;;21.53;34.76;100583.44;21096839;28;20437;-63
2023/03/10 22:56:57;;;;;;;51.15;4.53;;;;;;;21.56;35.49;100586.47;21123981;28;20039;-63
2023/03/10 23:07:04;;;;;;;7.07;2.40;;;;;;;21.63;35.25;100597.28;21115840;28;20031;-64
2023/03/10 23:17:05;;;;;;;10.60;2.28;;;;;;;21.20;35.28;100527.50;21079920;28;20040;-66
2023/03/10 23:27:12;;;;;;;12.73;3.35;;;;;;;21.72;35.56;100592.75;21044452;28;20116;-63
2023/03/10 23:37:14;;;;;;;13.88;2.60;;;;;;;21.78;35.42;100583.19;21031136;28;20040;-64
2023/03/10 23:47:15;;;;;;;29.20;3.85;;;;;;;21.83;36.91;100560.84;21057960;28;20075;-64
2023/03/10 23:57:16;;;;;;;24.90;3.30;;;;;;;21.92;37.32;100543.50;21063576;28;20117;-63
